Crescent City, California
Current Conditions -  °F | °C
As of 4:56 AM on Saturday 25 Oct 2014 (Local Time) from KCEC Reporting Station
Overcast Overcast  
Wind Chill: 62°   Ceiling: 3900
Heat Index: 62°   Visibility: 10mi
Dew Point: 51°   Wind: 30mph
Humidity: 67%   Direction: 160°SSE
Pressure: 29.52"   Gusts: 39mph
Location:  41.74°N, 124.16°W
Report Text: KCEC 251156Z AUTO 16026G34KT 10SM OVC039 17/11 A2952 RMK AO2 PK WND 17040/1107 SLP997 60019 70030 T01670106 10172 20133 58029
Loading
Personal Weather Stations






























Interactive Weather Map
Tropical Storm Tracking
New forecast layout! Learn more

10-Day Weather Forecast

Advertisements
Track Severe Weather on mobile